Cotswold Airport


Codes: EGBP/
Name: Cotswold Airport
City: Kemble
Country: United Kingdom
Elevation: 433 ft.
Website:
Wikipedia:

Photos at Cotswold Airport


   Photos courtesy of SpottingLog. You can add your own sightings and photos by signing up for a free trial today.



EI-STI, 10-May-2024
© Simon Fewkes-Ahearne

N799WS, 10-May-2024
© Simon Fewkes-Ahearne

N340WS, 10-May-2024
© Simon Fewkes-Ahearne

M-STAR, 10-May-2024
© Simon Fewkes-Ahearne

VP-BDA, 10-May-2024
© Simon Fewkes-Ahearne

OY-SRL, 10-May-2024
© Simon Fewkes-Ahearne

OY-SRP, 10-May-2024
© Simon Fewkes-Ahearne

TF-AMI, 10-May-2024
© Simon Fewkes-Ahearne

M-FTOH, 10-May-2024
© Simon Fewkes-Ahearne

LY-SPC, 10-May-2024
© Simon Fewkes-Ahearne

G-BPAF, 17-Apr-2024
© Dennis Barney

G-BCUS, 17-Apr-2024
© Dennis Barney


Weather at Cotswold Airport


Time (UTC)DescriptionTempratureWindCloud coverageVisibilityPressureHumidity
16-Jun-2024 12:00Scattered Clouds16°C9 mph, W33%10000m1001hPa64%
16-Jun-2024 15:00Light Rain16°C13 mph, SW31%10000m1002hPa67%
16-Jun-2024 18:00Few Clouds14°C13 mph, W11%10000m1004hPa77%
16-Jun-2024 21:00Clear Sky9°C7 mph, SW2%10000m1006hPa95%
17-Jun-2024 00:00Scattered Clouds8°C7 mph, SW33%10000m1007hPa97%
17-Jun-2024 03:00Few Clouds8°C7 mph, SW23%10000m1008hPa98%
17-Jun-2024 06:00Few Clouds10°C7 mph, SW22%10000m1009hPa95%
17-Jun-2024 09:00Few Clouds15°C9 mph, SW18%10000m1010hPa76%
17-Jun-2024 12:00Light Rain17°C9 mph, SW29%10000m1011hPa65%
17-Jun-2024 15:00Broken Clouds18°C11 mph, W53%10000m1011hPa63%
17-Jun-2024 18:00Broken Clouds17°C7 mph, W63%10000m1012hPa76%
17-Jun-2024 21:00Overcast Clouds12°C4 mph, NW100%10000m1013hPa88%
18-Jun-2024 00:00Overcast Clouds11°C4 mph, NW100%10000m1015hPa94%
18-Jun-2024 03:00Scattered Clouds9°C7 mph, N49%10000m1015hPa94%
18-Jun-2024 06:00Scattered Clouds11°C7 mph, N48%10000m1016hPa90%
18-Jun-2024 09:00Broken Clouds14°C11 mph, N52%10000m1016hPa78%
18-Jun-2024 12:00Broken Clouds17°C11 mph, N62%10000m1016hPa69%
18-Jun-2024 15:00Scattered Clouds18°C11 mph, N39%10000m1017hPa66%
18-Jun-2024 18:00Scattered Clouds16°C9 mph, N49%10000m1018hPa78%
18-Jun-2024 21:00Overcast Clouds11°C7 mph, N100%10000m1020hPa93%
19-Jun-2024 00:00Overcast Clouds9°C7 mph, N98%10000m1022hPa96%
19-Jun-2024 03:00Overcast Clouds9°C7 mph, NE95%10000m1022hPa97%
19-Jun-2024 06:00Broken Clouds11°C7 mph, NE84%10000m1023hPa92%
19-Jun-2024 09:00Broken Clouds15°C7 mph, E67%10000m1024hPa79%
19-Jun-2024 12:00Broken Clouds17°C4 mph, SE77%10000m1024hPa70%
19-Jun-2024 15:00Broken Clouds20°C2 mph, E58%10000m1023hPa63%
19-Jun-2024 18:00Broken Clouds19°C2 mph, E72%10000m1022hPa74%
19-Jun-2024 21:00Scattered Clouds14°C2 mph, NE25%10000m1022hPa85%
20-Jun-2024 00:00Scattered Clouds12°C2 mph, NE45%10000m1021hPa92%
20-Jun-2024 03:00Broken Clouds11°C2 mph, SE64%10000m1020hPa94%
20-Jun-2024 06:00Broken Clouds13°C4 mph, NE80%10000m1019hPa91%
20-Jun-2024 09:00Overcast Clouds17°C7 mph, NE100%10000m1018hPa74%
20-Jun-2024 12:00Overcast Clouds18°C9 mph, E100%10000m1016hPa68%
20-Jun-2024 15:00Overcast Clouds19°C4 mph, E100%10000m1014hPa67%
20-Jun-2024 18:00Light Rain16°C4 mph, SE100%10000m1013hPa87%
20-Jun-2024 21:00Light Rain13°C4 mph, E100%10000m1013hPa90%
21-Jun-2024 00:00Light Rain13°C4 mph, NW100%10000m1012hPa86%
21-Jun-2024 03:00Light Rain13°C7 mph, W100%10000m1011hPa93%
21-Jun-2024 06:00Moderate Rain13°C2 mph, SW100%6658m1011hPa99%
21-Jun-2024 09:00Light Rain14°C7 mph, SW100%8820m1010hPa95%